Time;durP1;ratioP1;P1;durP2;ratioP2;P2;SDS_P1;SDS_P2;PMS_P1;PMS_P2;Temp;Humidity;BMP_temperature;BMP_pressure;BME280_temperature;BME280_humidity;BME280_pressure;Samples;Min_cycle;Max_cycle;Signal;HPM_P1;HPM_P2
2022/03/29 00:02:25;;;;;;;37.25;18.92;;;7.50;99.90;;;;;;4973150;28;20451;-62
2022/03/29 00:04:53;;;;;;;37.90;18.77;;;7.40;99.90;;;;;;5007428;28;20034;-65
2022/03/29 00:07:22;;;;;;;38.20;20.10;;;7.30;99.90;;;;;;5009150;28;20041;-62
2022/03/29 00:09:49;;;;;;;44.55;21.55;;;7.30;99.90;;;;;;5005132;28;20057;-62
2022/03/29 00:12:17;;;;;;;43.10;22.88;;;7.20;99.90;;;;;;5008573;28;20057;-65
2022/03/29 00:14:44;;;;;;;38.25;19.77;;;7.20;99.90;;;;;;5009293;28;20586;-63
2022/03/29 00:17:12;;;;;;;35.25;19.40;;;7.20;99.90;;;;;;5007602;28;20057;-63
2022/03/29 00:19:40;;;;;;;42.17;21.77;;;7.10;99.90;;;;;;4996593;28;20069;-64
2022/03/29 00:22:07;;;;;;;44.38;22.10;;;7.10;99.90;;;;;;4997103;28;20049;-64
2022/03/29 00:24:35;;;;;;;43.08;21.02;;;7.00;99.90;;;;;;5000695;28;20413;-65
2022/03/29 00:27:04;;;;;;;36.72;19.88;;;7.00;99.90;;;;;;4989976;28;20383;-61
2022/03/29 00:29:32;;;;;;;42.75;20.35;;;6.90;99.90;;;;;;4990798;28;20053;-65
2022/03/29 00:31:59;;;;;;;46.05;21.45;;;6.90;99.90;;;;;;4991825;28;20053;-63
2022/03/29 00:34:27;;;;;;;46.05;21.70;;;6.80;99.90;;;;;;5009043;28;20041;-65
2022/03/29 00:36:55;;;;;;;43.28;21.38;;;6.80;99.90;;;;;;5007066;28;20064;-63
2022/03/29 00:39:23;;;;;;;43.42;20.52;;;6.70;99.90;;;;;;4993407;28;20042;-65
2022/03/29 00:41:51;;;;;;;38.92;21.33;;;6.70;99.90;;;;;;4990194;28;20042;-63
2022/03/29 00:44:24;;;;;;;41.05;20.58;;;6.70;99.90;;;;;;5006889;28;20049;-61
2022/03/29 00:46:51;;;;;;;45.33;21.55;;;6.60;99.90;;;;;;5007682;28;20072;-63
2022/03/29 00:49:19;;;;;;;41.13;20.65;;;6.60;99.90;;;;;;5007693;28;20041;-65
2022/03/29 00:51:47;;;;;;;46.10;21.95;;;6.60;99.90;;;;;;5008095;28;20061;-66
2022/03/29 00:54:14;;;;;;;40.97;20.73;;;6.60;99.90;;;;;;5005477;28;20042;-64
2022/03/29 00:56:42;;;;;;;43.60;20.25;;;6.60;99.90;;;;;;5008466;28;20053;-63
2022/03/29 00:59:10;;;;;;;56.15;21.77;;;6.50;99.90;;;;;;5008617;28;20057;-62
2022/03/29 01:01:38;;;;;;;47.65;21.58;;;6.50;99.90;;;;;;5007875;28;20046;-64
2022/03/29 01:04:06;;;;;;;42.05;20.75;;;6.40;99.90;;;;;;5005320;28;20034;-60
2022/03/29 01:06:38;;;;;;;48.03;20.15;;;6.40;99.90;;;;;;5004683;28;20061;-62
2022/03/29 01:09:06;;;;;;;45.72;20.90;;;6.40;99.90;;;;;;4998782;28;20042;-63
2022/03/29 01:11:33;;;;;;;47.50;21.02;;;6.40;99.90;;;;;;4999001;28;20045;-63
2022/03/29 01:14:02;;;;;;;44.78;20.33;;;6.30;99.90;;;;;;5004450;28;20058;-62
2022/03/29 01:19:20;;;;;;;43.17;20.55;;;6.30;99.90;;;;;;5008345;28;20169;-64
2022/03/29 01:21:58;;;;;;;43.38;19.95;;;6.20;99.90;;;;;;5006451;28;20052;-63
2022/03/29 01:24:28;;;;;;;43.00;20.60;;;6.10;99.90;;;;;;4995309;28;20090;-64
2022/03/29 01:26:59;;;;;;;54.65;23.05;;;6.10;99.90;;;;;;4989475;28;20520;-64
2022/03/29 01:29:29;;;;;;;75.75;23.25;;;6.10;99.90;;;;;;5006263;28;20401;-62
2022/03/29 01:31:58;;;;;;;41.20;19.88;;;6.10;99.90;;;;;;4964453;28;20042;-64
2022/03/29 01:34:26;;;;;;;45.60;20.97;;;6.00;99.90;;;;;;4992303;28;20049;-65
2022/03/29 01:36:54;;;;;;;42.83;21.58;;;6.00;99.90;;;;;;4992855;28;20304;-63
2022/03/29 01:39:21;;;;;;;40.00;20.95;;;5.90;99.90;;;;;;4999271;28;20054;-63
2022/03/29 01:41:49;;;;;;;40.90;20.52;;;5.90;99.90;;;;;;4996444;28;20054;-65
2022/03/29 01:44:17;;;;;;;41.55;21.52;;;5.90;99.90;;;;;;5008088;28;20034;-67
2022/03/29 01:46:45;;;;;;;45.28;21.55;;;5.90;99.90;;;;;;5009503;28;20050;-64
2022/03/29 01:49:13;;;;;;;43.55;20.50;;;5.80;99.90;;;;;;5002350;28;20069;-62
2022/03/29 01:51:42;;;;;;;38.38;19.23;;;5.80;99.90;;;;;;5002838;28;20397;-64
2022/03/29 01:54:10;;;;;;;43.33;21.40;;;5.80;99.90;;;;;;5010942;28;20061;-62
2022/03/29 01:56:37;;;;;;;41.80;19.70;;;5.80;99.90;;;;;;5008110;28;20033;-62
2022/03/29 01:59:07;;;;;;;40.65;20.77;;;5.70;99.90;;;;;;5013929;28;20054;-63
2022/03/29 02:01:42;;;;;;;41.33;21.55;;;5.70;99.90;;;;;;4995981;28;20053;-63
2022/03/29 02:04:10;;;;;;;42.53;19.17;;;5.70;99.90;;;;;;4983926;28;20409;-62
2022/03/29 02:06:39;;;;;;;43.03;19.60;;;5.60;99.90;;;;;;5014756;28;20057;-63
2022/03/29 02:09:07;;;;;;;38.03;19.80;;;5.50;99.90;;;;;;5013787;28;20053;-62
2022/03/29 02:11:36;;;;;;;41.65;20.48;;;5.50;99.90;;;;;;5014169;28;20050;-62
2022/03/29 02:14:03;;;;;;;40.15;19.88;;;5.50;99.90;;;;;;5013936;28;20053;-63
2022/03/29 02:16:33;;;;;;;39.28;19.55;;;5.50;99.90;;;;;;5003210;28;20042;-63
2022/03/29 02:19:00;;;;;;;50.05;19.75;;;5.40;99.90;;;;;;4994376;28;20054;-62
2022/03/29 02:21:28;;;;;;;42.60;20.70;;;5.40;99.90;;;;;;4995395;28;20049;-62
2022/03/29 02:23:56;;;;;;;37.13;18.80;;;5.40;99.90;;;;;;4978281;28;20050;-62
2022/03/29 02:26:23;;;;;;;43.47;21.05;;;5.40;99.90;;;;;;4995285;28;20039;-63
2022/03/29 02:28:51;;;;;;;39.67;18.17;;;5.30;99.90;;;;;;4995281;28;20053;-63
2022/03/29 02:31:18;;;;;;;42.42;19.73;;;5.40;99.90;;;;;;4995193;28;20506;-62
2022/03/29 02:33:46;;;;;;;38.50;19.23;;;5.40;99.90;;;;;;4995439;28;20042;-62
2022/03/29 02:36:16;;;;;;;38.78;21.02;;;5.30;99.90;;;;;;4995129;28;20062;-62
2022/03/29 02:38:43;;;;;;;43.55;21.05;;;5.30;99.90;;;;;;4995175;28;20038;-62
2022/03/29 02:41:11;;;;;;;39.78;19.20;;;5.30;99.90;;;;;;4995009;28;20053;-63
2022/03/29 02:43:38;;;;;;;45.80;21.35;;;5.30;99.90;;;;;;4993998;28;20508;-62
2022/03/29 02:46:07;;;;;;;41.03;18.23;;;5.30;99.90;;;;;;4994630;28;20494;-62
2022/03/29 02:48:35;;;;;;;39.08;19.42;;;5.20;99.90;;;;;;4977861;28;20045;-62
2022/03/29 02:51:02;;;;;;;39.13;20.17;;;5.20;99.90;;;;;;4977465;28;20050;-62
2022/03/29 02:53:30;;;;;;;36.75;18.58;;;5.20;99.90;;;;;;4994974;28;20042;-62
2022/03/29 02:55:57;;;;;;;37.35;18.95;;;5.10;99.90;;;;;;4994835;28;20401;-62
2022/03/29 02:58:25;;;;;;;42.60;21.75;;;5.10;99.90;;;;;;4994873;28;20046;-62
2022/03/29 03:00:53;;;;;;;42.10;19.70;;;5.10;99.90;;;;;;4994776;28;20050;-62
2022/03/29 03:03:21;;;;;;;40.10;18.70;;;5.10;99.90;;;;;;4994775;28;20054;-63
2022/03/29 03:05:48;;;;;;;38.53;19.40;;;5.00;99.90;;;;;;4994559;28;20065;-62
2022/03/29 03:08:16;;;;;;;46.90;20.15;;;5.00;99.90;;;;;;4994070;28;20113;-62
2022/03/29 03:10:44;;;;;;;41.03;19.55;;;4.90;99.90;;;;;;4994470;28;20050;-62
2022/03/29 03:13:11;;;;;;;46.28;20.55;;;5.00;99.90;;;;;;4994543;28;20043;-62
2022/03/29 03:15:39;;;;;;;44.25;21.15;;;4.90;99.90;;;;;;4994472;28;20047;-64
2022/03/29 03:18:09;;;;;;;40.97;19.30;;;4.90;99.90;;;;;;4994546;28;20383;-64
2022/03/29 03:20:37;;;;;;;46.88;20.23;;;4.90;99.90;;;;;;4994231;28;20486;-65
2022/03/29 03:23:05;;;;;;;39.05;18.15;;;4.90;99.90;;;;;;4994468;28;20046;-65
2022/03/29 03:25:32;;;;;;;40.25;19.80;;;4.80;99.90;;;;;;4994345;28;20050;-64
2022/03/29 03:28:00;;;;;;;40.80;19.73;;;4.90;99.90;;;;;;4994287;28;20050;-62
2022/03/29 03:30:27;;;;;;;40.15;19.35;;;4.80;99.90;;;;;;4994157;28;20427;-68
2022/03/29 03:32:55;;;;;;;40.28;18.92;;;4.80;99.90;;;;;;4994182;28;20405;-64
2022/03/29 03:35:23;;;;;;;41.17;20.17;;;4.80;99.90;;;;;;4994256;28;20196;-65
2022/03/29 03:37:50;;;;;;;41.47;20.63;;;4.70;99.90;;;;;;4993958;28;20390;-64
2022/03/29 03:40:18;;;;;;;45.95;20.52;;;4.70;99.90;;;;;;4994064;28;20398;-67
2022/03/29 03:42:46;;;;;;;39.10;20.27;;;4.70;99.90;;;;;;4976592;28;20521;-63
2022/03/29 03:45:13;;;;;;;39.13;18.77;;;4.70;99.90;;;;;;4976481;28;20054;-63
2022/03/29 03:47:41;;;;;;;41.80;19.58;;;4.70;99.90;;;;;;4993859;28;20051;-67
2022/03/29 03:50:09;;;;;;;45.13;19.30;;;4.60;99.90;;;;;;4993839;28;20382;-65
2022/03/29 03:52:37;;;;;;;39.97;19.45;;;4.60;99.90;;;;;;4993768;28;20057;-62
2022/03/29 03:55:05;;;;;;;48.75;19.40;;;4.60;99.90;;;;;;4993856;28;20410;-63
2022/03/29 03:57:33;;;;;;;42.83;19.63;;;4.60;99.90;;;;;;4993745;28;20054;-66
2022/03/29 04:00:01;;;;;;;43.55;18.45;;;4.50;99.90;;;;;;4993636;28;20046;-66
2022/03/29 04:02:38;;;;;;;36.67;16.73;;;4.50;99.90;;;;;;4976272;28;20046;-64
2022/03/29 04:05:08;;;;;;;38.13;17.17;;;4.40;99.90;;;;;;4976257;28;20065;-66
2022/03/29 04:07:35;;;;;;;35.97;17.73;;;4.40;99.90;;;;;;4976091;28;20050;-66
2022/03/29 04:10:03;;;;;;;38.42;18.27;;;4.40;99.90;;;;;;4993523;28;20046;-65
2022/03/29 04:12:31;;;;;;;40.05;18.80;;;4.40;99.90;;;;;;4993478;28;20046;-65
2022/03/29 04:14:59;;;;;;;40.83;18.08;;;4.30;99.90;;;;;;4993445;28;20049;-64
2022/03/29 04:17:27;;;;;;;43.55;19.13;;;4.30;99.90;;;;;;4993392;28;20054;-66
2022/03/29 04:19:55;;;;;;;37.13;18.40;;;4.30;99.90;;;;;;4992480;28;20042;-63
2022/03/29 04:22:22;;;;;;;36.83;17.92;;;4.30;99.90;;;;;;4993378;28;20490;-65
2022/03/29 04:24:50;;;;;;;40.33;17.77;;;4.20;99.90;;;;;;4993339;28;20367;-61
2022/03/29 04:27:18;;;;;;;37.33;16.92;;;4.20;99.90;;;;;;4975716;28;20371;-62
2022/03/29 04:29:45;;;;;;;37.75;16.33;;;4.20;99.90;;;;;;4993088;28;20042;-62
2022/03/29 04:32:13;;;;;;;38.45;17.55;;;4.20;99.90;;;;;;4992992;28;20042;-61
2022/03/29 04:34:40;;;;;;;40.45;17.98;;;4.10;99.90;;;;;;4993100;28;20051;-62
2022/03/29 04:37:08;;;;;;;39.38;17.70;;;4.10;99.90;;;;;;4975566;28;20054;-62
2022/03/29 04:39:38;;;;;;;35.22;17.58;;;4.10;99.90;;;;;;4992754;28;20046;-61
2022/03/29 04:42:06;;;;;;;36.08;17.90;;;4.10;99.90;;;;;;4992889;28;20051;-61
2022/03/29 04:44:35;;;;;;;33.92;17.00;;;4.10;99.90;;;;;;4975847;28;20389;-61
2022/03/29 04:47:04;;;;;;;35.95;17.13;;;4.10;99.90;;;;;;4992026;28;20426;-61
2022/03/29 04:49:32;;;;;;;38.65;18.23;;;4.10;99.90;;;;;;4989468;28;20050;-60
2022/03/29 04:51:59;;;;;;;36.90;17.58;;;4.10;99.90;;;;;;4989541;28;20042;-63
2022/03/29 04:54:28;;;;;;;42.35;17.75;;;4.10;99.90;;;;;;4989586;28;20398;-62
2022/03/29 04:56:55;;;;;;;36.42;18.25;;;4.00;99.90;;;;;;4990166;28;20433;-61
2022/03/29 04:59:23;;;;;;;35.78;17.27;;;4.00;99.90;;;;;;5008907;28;20045;-61
2022/03/29 05:01:51;;;;;;;37.15;16.77;;;4.00;99.90;;;;;;5004124;28;20050;-61
2022/03/29 05:04:19;;;;;;;39.97;16.48;;;4.00;99.90;;;;;;5002105;28;20050;-61
2022/03/29 05:06:46;;;;;;;43.05;17.95;;;4.00;99.90;;;;;;5004323;28;20050;-62
2022/03/29 05:09:14;;;;;;;34.13;16.17;;;3.90;99.90;;;;;;5005397;28;20053;-61
2022/03/29 05:11:42;;;;;;;37.70;17.35;;;4.00;99.90;;;;;;4989549;28;20050;-63
2022/03/29 05:14:09;;;;;;;31.52;15.68;;;3.90;99.90;;;;;;4991050;28;20497;-62
2022/03/29 05:16:37;;;;;;;37.13;18.42;;;3.90;99.90;;;;;;4991316;28;20601;-62
2022/03/29 05:19:05;;;;;;;39.20;17.35;;;3.90;99.90;;;;;;4996878;28;20516;-63
2022/03/29 05:21:32;;;;;;;39.97;18.15;;;3.90;99.90;;;;;;5008547;28;20500;-64
2022/03/29 05:24:00;;;;;;;38.15;17.38;;;3.90;99.90;;;;;;4992101;28;20053;-64
2022/03/29 05:26:28;;;;;;;37.40;17.35;;;3.90;99.90;;;;;;4986964;28;20049;-61
2022/03/29 05:28:56;;;;;;;39.83;17.15;;;3.90;99.90;;;;;;4995603;28;20053;-64
2022/03/29 05:31:24;;;;;;;39.60;17.45;;;3.80;99.90;;;;;;4968844;28;20051;-62
2022/03/29 05:33:51;;;;;;;40.53;18.52;;;3.80;99.90;;;;;;4992030;28;20050;-63
2022/03/29 05:36:19;;;;;;;36.55;17.75;;;3.80;99.90;;;;;;4993276;28;20045;-62
2022/03/29 05:38:50;;;;;;;40.90;18.42;;;3.80;99.90;;;;;;5008438;28;20857;-63
2022/03/29 05:41:21;;;;;;;37.50;16.58;;;3.80;99.90;;;;;;4979917;28;20069;-63
2022/03/29 05:43:49;;;;;;;33.97;16.73;;;3.70;99.90;;;;;;4987311;28;20061;-62
2022/03/29 05:49:04;;;;;;;35.63;16.35;;;3.70;99.90;;;;;;4996348;28;20481;-62
2022/03/29 05:51:31;;;;;;;31.20;14.93;;;3.60;99.90;;;;;;4997791;28;20046;-62
2022/03/29 05:54:01;;;;;;;44.20;16.88;;;3.70;99.90;;;;;;5002578;28;20053;-67
2022/03/29 05:56:29;;;;;;;36.58;17.83;;;3.60;99.90;;;;;;5004346;28;20049;-66
2022/03/29 05:58:57;;;;;;;32.33;17.02;;;3.60;99.90;;;;;;5008263;28;20057;-63
2022/03/29 06:01:25;;;;;;;33.45;16.88;;;3.60;99.90;;;;;;5007779;28;20052;-65
2022/03/29 06:03:52;;;;;;;38.10;17.85;;;3.60;99.90;;;;;;4997101;28;20046;-63
2022/03/29 06:06:20;;;;;;;46.50;18.13;;;3.60;99.90;;;;;;4997063;28;20053;-62
2022/03/29 06:08:48;;;;;;;36.65;17.38;;;3.60;99.90;;;;;;4995425;28;20065;-67
2022/03/29 06:11:16;;;;;;;37.58;17.65;;;3.60;99.90;;;;;;4982976;28;20049;-67
2022/03/29 06:13:44;;;;;;;34.80;17.63;;;3.60;99.90;;;;;;5005684;28;20053;-66
2022/03/29 06:16:11;;;;;;;42.75;17.60;;;3.60;99.90;;;;;;5008063;28;20041;-66
2022/03/29 06:18:39;;;;;;;42.95;16.73;;;3.60;99.90;;;;;;4998965;28;20054;-64
2022/03/29 06:21:07;;;;;;;41.05;17.90;;;3.60;99.90;;;;;;4989450;28;20042;-66
2022/03/29 06:23:35;;;;;;;47.58;17.70;;;3.60;99.90;;;;;;5002268;28;20087;-64
2022/03/29 06:26:02;;;;;;;46.63;18.48;;;3.60;99.90;;;;;;5004814;28;20042;-68
2022/03/29 06:28:30;;;;;;;54.30;18.88;;;3.70;99.90;;;;;;5003799;28;20049;-62
2022/03/29 06:30:58;;;;;;;60.58;19.30;;;3.60;99.90;;;;;;4997253;28;20053;-61
2022/03/29 06:33:31;;;;;;;41.85;17.98;;;3.60;99.90;;;;;;4989576;28;20057;-66
2022/03/29 06:35:58;;;;;;;39.58;17.50;;;3.70;99.90;;;;;;5007346;28;20572;-62
2022/03/29 06:38:26;;;;;;;38.65;17.73;;;3.70;99.90;;;;;;5007544;28;20050;-62
2022/03/29 06:40:54;;;;;;;45.00;18.70;;;3.80;99.90;;;;;;5008043;28;20045;-65
2022/03/29 06:43:22;;;;;;;39.13;16.88;;;3.80;99.90;;;;;;4992362;28;20050;-63
2022/03/29 06:45:49;;;;;;;39.42;17.80;;;3.80;99.90;;;;;;5010588;28;20053;-64
2022/03/29 06:48:18;;;;;;;47.33;18.40;;;3.90;99.90;;;;;;5005864;28;20219;-64
2022/03/29 06:50:45;;;;;;;51.33;19.65;;;3.90;99.90;;;;;;4996697;28;20049;-65
2022/03/29 06:53:13;;;;;;;44.45;18.50;;;3.90;99.90;;;;;;5008964;28;20049;-64
2022/03/29 06:55:41;;;;;;;49.22;19.50;;;4.00;99.90;;;;;;4994739;28;20049;-62
2022/03/29 06:58:08;;;;;;;45.85;20.15;;;4.00;99.90;;;;;;5006748;28;20049;-61
2022/03/29 07:00:36;;;;;;;55.08;22.80;;;4.20;99.90;;;;;;5004972;28;20046;-62
2022/03/29 07:03:04;;;;;;;56.08;20.58;;;4.20;99.90;;;;;;5005677;28;20045;-62
2022/03/29 07:05:36;;;;;;;51.90;20.35;;;4.20;99.90;;;;;;4986968;28;20490;-61
2022/03/29 07:08:10;;;;;;;53.90;21.45;;;4.40;99.90;;;;;;4998711;28;20539;-66
2022/03/29 07:13:24;;;;;;;53.88;20.17;;;4.50;99.90;;;;;;5010191;28;20060;-66
2022/03/29 07:15:54;;;;;;;49.92;20.30;;;4.60;99.90;;;;;;5007476;28;20042;-64
2022/03/29 07:18:21;;;;;;;46.42;20.83;;;4.70;99.90;;;;;;5009184;28;20061;-64
2022/03/29 07:20:49;;;;;;;45.30;20.35;;;4.80;99.90;;;;;;5010309;28;20034;-63
2022/03/29 07:23:17;;;;;;;52.33;20.77;;;4.90;99.90;;;;;;4992100;28;20042;-63
2022/03/29 07:25:45;;;;;;;44.03;20.65;;;5.10;99.90;;;;;;5010194;28;20417;-61
2022/03/29 07:28:15;;;;;;;49.65;20.85;;;5.20;99.90;;;;;;5008729;28;20524;-62
2022/03/29 07:30:46;;;;;;;41.47;17.38;;;5.30;99.90;;;;;;4992229;28;20054;-64
2022/03/29 07:33:15;;;;;;;38.10;17.65;;;5.40;99.90;;;;;;5009502;28;20050;-62
2022/03/29 07:35:42;;;;;;;31.38;15.20;;;5.60;99.90;;;;;;5010472;28;20049;-65
2022/03/29 07:38:11;;;;;;;32.25;14.93;;;5.70;99.90;;;;;;5010206;28;20049;-62
2022/03/29 07:40:40;;;;;;;35.50;14.82;;;5.80;99.90;;;;;;4996691;28;20061;-62
2022/03/29 07:43:11;;;;;;;30.80;14.00;;;6.00;99.90;;;;;;5000915;28;20049;-62
2022/03/29 07:45:39;;;;;;;29.25;14.23;;;6.10;99.90;;;;;;5010429;28;20053;-65
2022/03/29 07:48:07;;;;;;;27.75;13.32;;;6.20;99.90;;;;;;4997810;28;20512;-62
2022/03/29 07:50:55;;;;;;;30.23;13.07;;;6.40;99.90;;;;;;5005752;28;20053;-63
2022/03/29 07:53:25;;;;;;;23.08;12.65;;;6.50;99.90;;;;;;5003123;28;20057;-62
2022/03/29 07:55:54;;;;;;;24.02;11.60;;;6.70;99.90;;;;;;4985626;28;20489;-63
2022/03/29 07:58:21;;;;;;;24.67;12.98;;;6.80;99.90;;;;;;5003914;28;20046;-62
2022/03/29 08:00:53;;;;;;;24.63;12.52;;;6.90;99.90;;;;;;5001889;28;20046;-62
2022/03/29 08:03:21;;;;;;;24.35;12.35;;;7.10;99.90;;;;;;5002760;28;20042;-62
2022/03/29 08:05:50;;;;;;;20.33;10.97;;;7.20;99.90;;;;;;4990109;28;20042;-62
2022/03/29 08:08:19;;;;;;;18.33;10.52;;;7.30;99.90;;;;;;5007746;28;20053;-62
2022/03/29 08:10:48;;;;;;;32.72;13.25;;;7.40;99.90;;;;;;4991438;28;20050;-62
2022/03/29 08:13:16;;;;;;;21.50;10.95;;;7.50;99.90;;;;;;5009174;28;20053;-62
2022/03/29 08:15:46;;;;;;;18.88;11.32;;;7.60;99.90;;;;;;5006863;28;20050;-63
2022/03/29 08:18:15;;;;;;;22.92;10.50;;;7.70;99.90;;;;;;5007084;28;20056;-63
2022/03/29 08:20:43;;;;;;;25.03;11.43;;;7.80;99.90;;;;;;5002552;28;20057;-62
2022/03/29 08:23:12;;;;;;;20.55;11.05;;;7.80;99.90;;;;;;4999217;28;20058;-66
2022/03/29 08:25:45;;;;;;;28.30;11.57;;;7.90;99.90;;;;;;5006491;28;20053;-62
2022/03/29 08:28:14;;;;;;;22.52;12.07;;;8.00;99.90;;;;;;4991573;28;20049;-64
2022/03/29 08:30:42;;;;;;;22.43;10.97;;;8.00;99.90;;;;;;5001244;28;20057;-64
2022/03/29 08:33:11;;;;;;;23.52;10.90;;;8.10;99.90;;;;;;5003892;28;20054;-65
2022/03/29 08:35:38;;;;;;;24.00;11.75;;;8.20;99.90;;;;;;5003487;28;20048;-62
2022/03/29 08:38:06;;;;;;;23.48;11.80;;;8.20;99.90;;;;;;5008771;28;20056;-61
2022/03/29 08:40:57;;;;;;;24.65;12.48;;;8.20;99.90;;;;;;5007635;28;20049;-62
2022/03/29 08:43:27;;;;;;;27.15;11.43;;;8.30;99.90;;;;;;5008592;28;20049;-62
2022/03/29 08:45:56;;;;;;;25.58;11.98;;;8.40;99.90;;;;;;4981489;28;20051;-63
2022/03/29 08:48:25;;;;;;;20.92;10.45;;;8.50;99.90;;;;;;4994293;28;20053;-62
2022/03/29 08:50:56;;;;;;;25.00;10.90;;;8.50;99.90;;;;;;4972838;28;20382;-62
2022/03/29 08:53:48;;;;;;;20.85;11.18;;;8.60;99.90;;;;;;4993749;28;20046;-62
2022/03/29 08:56:16;;;;;;;19.10;9.57;;;8.70;99.90;;;;;;5001401;28;20049;-62
2022/03/29 08:58:43;;;;;;;18.17;9.80;;;8.80;99.90;;;;;;5002759;28;20557;-62
2022/03/29 09:01:11;;;;;;;23.38;9.57;;;8.90;99.90;;;;;;4994544;28;20277;-62
2022/03/29 09:03:39;;;;;;;15.70;8.55;;;8.90;99.90;;;;;;4994726;28;20038;-63
2022/03/29 09:06:09;;;;;;;16.67;9.13;;;9.10;99.90;;;;;;4997438;28;20038;-64
2022/03/29 09:08:47;;;;;;;18.88;9.75;;;9.10;99.90;;;;;;5000170;28;20062;-64
2022/03/29 09:11:16;;;;;;;17.27;8.93;;;9.20;99.90;;;;;;4990651;28;20046;-68
2022/03/29 09:13:44;;;;;;;19.17;9.93;;;9.30;99.90;;;;;;4998042;28;20497;-63
2022/03/29 09:16:30;;;;;;;18.88;9.50;;;9.40;99.90;;;;;;4974582;28;20061;-67
2022/03/29 09:18:58;;;;;;;23.50;9.80;;;9.50;99.90;;;;;;4971219;28;20049;-67
2022/03/29 09:21:27;;;;;;;19.17;9.63;;;9.60;99.90;;;;;;4994510;28;20041;-65
2022/03/29 09:24:07;;;;;;;16.70;9.20;;;9.60;99.90;;;;;;4992629;28;20054;-66
2022/03/29 09:26:41;;;;;;;19.63;10.48;;;9.70;99.90;;;;;;4997398;28;20046;-62
2022/03/29 09:29:22;;;;;;;18.20;8.82;;;9.80;99.90;;;;;;4994743;28;20049;-64
2022/03/29 09:32:10;;;;;;;18.58;9.70;;;9.90;99.90;;;;;;4997442;28;20050;-62
2022/03/29 09:34:38;;;;;;;16.92;8.93;;;10.00;99.90;;;;;;5003626;28;20049;-62
2022/03/29 09:37:06;;;;;;;16.50;7.88;;;10.10;99.90;;;;;;4996504;28;20407;-62
2022/03/29 09:39:40;;;;;;;14.80;8.57;;;10.20;99.90;;;;;;4990434;28;20505;-62
2022/03/29 09:42:12;;;;;;;16.85;8.68;;;10.40;99.90;;;;;;4982734;28;20042;-62
2022/03/29 09:44:53;;;;;;;17.60;9.60;;;10.50;99.90;;;;;;4999640;28;20046;-62
2022/03/29 09:47:22;;;;;;;16.25;9.13;;;10.60;99.90;;;;;;4993471;28;20057;-62
2022/03/29 09:49:55;;;;;;;15.73;8.90;;;10.80;99.90;;;;;;4982315;28;20046;-62
2022/03/29 09:52:27;;;;;;;19.35;10.15;;;10.90;99.90;;;;;;5004639;28;20056;-60
2022/03/29 09:55:16;;;;;;;20.05;10.10;;;11.00;99.90;;;;;;4982213;28;20430;-60
2022/03/29 09:57:46;;;;;;;16.88;10.25;;;11.10;99.90;;;;;;4974974;28;20482;-62
2022/03/29 10:00:19;;;;;;;;;;;11.20;99.90;;;;;;4985610;28;20050;-60
2022/03/29 10:02:47;;;;;;;21.27;11.43;;;11.30;99.90;;;;;;4994412;28;20599;-60
2022/03/29 10:05:18;;;;;;;25.83;12.85;;;11.50;99.90;;;;;;5008563;28;20046;-60
2022/03/29 10:11:04;;;;;;;23.92;12.73;;;11.70;99.90;;;;;;4980218;28;20051;-59
2022/03/29 10:13:32;;;;;;;25.23;13.75;;;11.80;99.90;;;;;;5002665;28;20046;-60
2022/03/29 10:16:02;;;;;;;27.58;14.68;;;11.90;99.90;;;;;;4995928;28;20057;-61
2022/03/29 10:18:30;;;;;;;26.83;15.40;;;12.00;99.90;;;;;;4986116;28;20034;-60
2022/03/29 10:21:00;;;;;;;25.30;15.23;;;12.10;99.90;;;;;;4992136;28;20050;-61
2022/03/29 10:23:29;;;;;;;24.13;14.18;;;12.20;99.90;;;;;;5004075;28;20468;-60
2022/03/29 10:25:59;;;;;;;27.10;14.18;;;12.30;99.90;;;;;;5010836;28;20050;-61
2022/03/29 10:28:28;;;;;;;33.03;16.85;;;12.40;99.90;;;;;;5004225;28;20050;-60
2022/03/29 10:30:56;;;;;;;38.92;19.02;;;12.60;99.90;;;;;;5000609;28;20054;-60
2022/03/29 10:33:33;;;;;;;35.42;20.00;;;12.80;99.90;;;;;;5004634;28;20042;-62
2022/03/29 10:36:07;;;;;;;39.13;20.25;;;12.90;99.90;;;;;;4998934;28;20394;-61
2022/03/29 10:38:46;;;;;;;45.88;21.38;;;13.10;99.90;;;;;;4995403;28;20034;-61
2022/03/29 10:41:29;;;;;;;34.97;20.45;;;13.20;99.90;;;;;;5002722;28;20509;-61
2022/03/29 10:44:08;;;;;;;41.97;21.30;;;13.40;99.90;;;;;;5000878;28;20057;-63
2022/03/29 10:46:47;;;;;;;40.58;20.70;;;13.50;99.90;;;;;;4998157;28;20496;-62
2022/03/29 10:49:24;;;;;;;37.83;20.40;;;13.60;99.90;;;;;;4993192;28;20053;-61
2022/03/29 10:52:19;;;;;;;37.80;20.17;;;13.70;99.90;;;;;;4974516;28;20050;-61
2022/03/29 10:54:47;;;;;;;40.25;22.80;;;13.80;99.90;;;;;;4992068;28;20042;-62
2022/03/29 10:57:25;;;;;;;35.95;19.60;;;13.90;99.90;;;;;;5010843;28;20046;-62
2022/03/29 11:00:17;;;;;;;35.28;19.65;;;14.10;99.90;;;;;;4988895;28;20045;-62
2022/03/29 11:03:07;;;;;;;37.08;20.90;;;14.10;99.90;;;;;;4997188;28;20541;-64
2022/03/29 11:06:12;;;;;;;34.40;19.00;;;14.20;99.90;;;;;;5002833;28;20038;-65
2022/03/29 11:08:42;;;;;;;38.97;20.65;;;14.30;99.90;;;;;;4977611;28;20090;-61
2022/03/29 11:11:30;;;;;;;;;;;14.40;99.90;;;;;;4985466;28;20397;-65
2022/03/29 11:14:33;;;;;;;35.67;21.13;;;14.30;99.90;;;;;;5006146;28;19930;-60
2022/03/29 11:17:04;;;;;;;39.83;21.42;;;14.20;99.90;;;;;;5005780;28;20049;-61
2022/03/29 11:19:48;;;;;;;36.97;20.83;;;14.10;99.90;;;;;;5000450;28;20061;-60
2022/03/29 11:22:22;;;;;;;41.70;19.95;;;14.00;99.90;;;;;;5006594;28;20037;-62
2022/03/29 11:24:54;;;;;;;37.45;19.88;;;13.90;99.90;;;;;;4984342;28;20049;-60
2022/03/29 11:27:28;;;;;;;35.30;21.05;;;13.80;99.90;;;;;;5001882;28;20653;-62
2022/03/29 11:29:56;;;;;;;34.20;19.83;;;13.70;99.90;;;;;;5009063;28;20042;-62
2022/03/29 11:32:24;;;;;;;36.53;19.17;;;13.70;99.90;;;;;;5008942;28;20429;-61
2022/03/29 11:34:56;;;;;;;35.67;19.17;;;13.70;99.90;;;;;;5008492;28;20046;-65
2022/03/29 11:37:32;;;;;;;36.78;19.90;;;13.70;99.90;;;;;;5010158;28;20046;-64
2022/03/29 11:40:03;;;;;;;30.42;18.25;;;13.70;99.90;;;;;;5010642;28;20046;-63
2022/03/29 11:42:52;;;;;;;35.38;18.70;;;13.80;99.90;;;;;;4993743;28;20237;-62
2022/03/29 11:45:29;;;;;;;31.23;16.42;;;14.00;99.90;;;;;;4994324;28;20069;-65
2022/03/29 11:48:04;;;;;;;28.30;15.15;;;14.30;99.90;;;;;;5000427;28;20049;-67
2022/03/29 11:50:37;;;;;;;27.92;14.95;;;14.70;99.90;;;;;;4999850;28;20049;-67
2022/03/29 11:53:17;;;;;;;26.05;13.55;;;15.10;99.90;;;;;;5006415;28;20425;-63
2022/03/29 11:55:58;;;;;;;20.15;11.35;;;15.60;98.60;;;;;;5004424;28;20046;-63
2022/03/29 11:58:30;;;;;;;25.67;14.48;;;16.20;97.70;;;;;;5003225;28;20065;-66
2022/03/29 12:01:03;;;;;;;23.83;13.77;;;16.60;95.30;;;;;;5002655;28;20050;-64
2022/03/29 12:03:35;;;;;;;22.58;12.60;;;17.10;94.60;;;;;;4999062;28;20043;-62
2022/03/29 12:06:11;;;;;;;18.20;10.55;;;17.30;90.50;;;;;;4992157;28;20568;-62
2022/03/29 12:09:03;;;;;;;19.23;12.02;;;17.60;89.20;;;;;;4993277;28;20046;-61
2022/03/29 12:11:31;;;;;;;21.40;12.38;;;18.00;87.70;;;;;;4997067;28;20049;-61
2022/03/29 12:14:08;;;;;;;28.08;14.48;;;17.90;84.10;;;;;;5008094;28;20508;-61
2022/03/29 12:16:44;;;;;;;26.92;15.73;;;17.70;87.50;;;;;;5009795;28;20046;-61
2022/03/29 12:19:19;;;;;;;30.13;17.10;;;17.10;90.10;;;;;;5003039;28;20553;-61
2022/03/29 12:21:51;;;;;;;28.75;15.82;;;16.60;92.40;;;;;;5003958;28;20057;-60
2022/03/29 12:24:46;;;;;;;29.02;16.70;;;16.40;95.60;;;;;;4987465;28;20530;-60
2022/03/29 12:27:19;;;;;;;26.00;13.52;;;16.70;97.00;;;;;;4974277;28;20046;-60
2022/03/29 12:29:49;;;;;;;25.80;13.50;;;17.10;94.90;;;;;;5008085;28;20046;-60
2022/03/29 12:32:18;;;;;;;20.52;12.15;;;17.50;92.30;;;;;;5004996;28;22031;-61
2022/03/29 12:34:54;;;;;;;20.38;11.75;;;17.90;91.50;;;;;;4993164;28;20057;-61
2022/03/29 12:37:23;;;;;;;20.75;12.02;;;18.20;89.30;;;;;;4993564;28;20045;-63
2022/03/29 12:40:00;;;;;;;18.52;10.93;;;18.30;90.00;;;;;;4996412;28;20045;-63
2022/03/29 12:42:33;;;;;;;14.70;8.95;;;18.60;87.60;;;;;;4994369;28;20053;-63
2022/03/29 12:45:03;;;;;;;19.92;8.82;;;18.80;81.30;;;;;;5001681;28;20081;-60
2022/03/29 12:47:32;;;;;;;17.63;10.32;;;19.10;76.10;;;;;;5001055;28;20034;-61
2022/03/29 12:50:01;;;;;;;16.25;9.38;;;19.20;77.00;;;;;;5001053;28;20046;-61
2022/03/29 12:52:29;;;;;;;16.95;9.05;;;19.10;76.20;;;;;;5005182;28;20076;-61
2022/03/29 12:55:02;;;;;;;19.05;10.90;;;18.90;73.30;;;;;;4997117;28;20042;-61
2022/03/29 12:57:38;;;;;;;20.70;11.90;;;18.60;75.30;;;;;;4991705;28;20510;-63
2022/03/29 13:00:09;;;;;;;15.25;8.55;;;18.60;77.50;;;;;;4996817;28;20482;-63
2022/03/29 13:02:43;;;;;;;19.42;9.65;;;18.90;75.40;;;;;;5003938;28;20038;-62
2022/03/29 13:05:11;;;;;;;20.77;11.93;;;19.20;72.70;;;;;;4999658;28;20069;-63